Cansado, Mauritania
Current Conditions -  °F | °C
As of 6:00 PM on Saturday 25 Oct 2014 (Local Time) from GQPP Reporting Station
Clear Clear  
Wind Chill: 81°   Ceiling: Unl
Heat Index: 81°   Visibility: 5mi
Dew Point: 61°   Wind: 10mph
Humidity: 51%   Direction: 290°WNW
Pressure: 29.85"   Gusts: NA
Location:  20.85°N, 17.03°W
Report Text: GQPP 251800Z 29009KT 8000 NSC 27/16 Q1011 NOSIG
Loading
Personal Weather Stations






























Interactive Weather Map
Tropical Storm Tracking
New forecast layout! Learn more

10-Day Weather Forecast

Advertisements
Track Severe Weather on mobile